sensor_id;sensor_type;location;lat;lon;timestamp;P1;durP1;ratioP1;P2;durP2;ratioP2
67274;SDS011;55463;52.324;5.122;2023-04-21T00:02:02;17.88;;;11.50;;
67274;SDS011;55463;52.324;5.122;2023-04-21T00:04:27;15.88;;;10.88;;
67274;SDS011;55463;52.324;5.122;2023-04-21T00:06:53;17.23;;;10.73;;
67274;SDS011;55463;52.324;5.122;2023-04-21T00:09:19;17.45;;;11.75;;
67274;SDS011;55463;52.324;5.122;2023-04-21T00:11:45;18.00;;;12.15;;
67274;SDS011;55463;52.324;5.122;2023-04-21T00:14:10;19.92;;;12.27;;
67274;SDS011;55463;52.324;5.122;2023-04-21T00:16:36;19.17;;;12.50;;
67274;SDS011;55463;52.324;5.122;2023-04-21T00:19:01;19.55;;;12.23;;
67274;SDS011;55463;52.324;5.122;2023-04-21T00:21:31;16.58;;;11.85;;
67274;SDS011;55463;52.324;5.122;2023-04-21T00:23:57;20.48;;;13.18;;
67274;SDS011;55463;52.324;5.122;2023-04-21T00:26:22;18.75;;;13.05;;
67274;SDS011;55463;52.324;5.122;2023-04-21T00:28:47;18.35;;;13.13;;
67274;SDS011;55463;52.324;5.122;2023-04-21T00:31:13;22.05;;;14.10;;
67274;SDS011;55463;52.324;5.122;2023-04-21T00:33:38;20.30;;;13.18;;
67274;SDS011;55463;52.324;5.122;2023-04-21T00:36:03;19.55;;;13.23;;
67274;SDS011;55463;52.324;5.122;2023-04-21T00:38:29;21.25;;;13.93;;
67274;SDS011;55463;52.324;5.122;2023-04-21T00:40:54;23.30;;;14.05;;
67274;SDS011;55463;52.324;5.122;2023-04-21T00:43:20;20.23;;;13.52;;
67274;SDS011;55463;52.324;5.122;2023-04-21T00:45:45;19.35;;;13.57;;
67274;SDS011;55463;52.324;5.122;2023-04-21T00:48:11;21.52;;;14.52;;
67274;SDS011;55463;52.324;5.122;2023-04-21T00:50:36;21.23;;;14.18;;
67274;SDS011;55463;52.324;5.122;2023-04-21T00:53:02;24.17;;;14.68;;
67274;SDS011;55463;52.324;5.122;2023-04-21T00:55:27;23.95;;;14.63;;
67274;SDS011;55463;52.324;5.122;2023-04-21T00:57:55;23.83;;;14.82;;
67274;SDS011;55463;52.324;5.122;2023-04-21T01:00:20;20.10;;;13.40;;
67274;SDS011;55463;52.324;5.122;2023-04-21T01:02:46;21.23;;;14.57;;
67274;SDS011;55463;52.324;5.122;2023-04-21T01:05:11;23.08;;;14.93;;
67274;SDS011;55463;52.324;5.122;2023-04-21T01:07:37;22.30;;;15.20;;
67274;SDS011;55463;52.324;5.122;2023-04-21T01:10:03;25.15;;;15.48;;
67274;SDS011;55463;52.324;5.122;2023-04-21T01:12:29;23.88;;;16.35;;
67274;SDS011;55463;52.324;5.122;2023-04-21T01:14:54;22.38;;;15.02;;
67274;SDS011;55463;52.324;5.122;2023-04-21T01:17:20;26.23;;;16.00;;
67274;SDS011;55463;52.324;5.122;2023-04-21T01:19:46;21.88;;;15.07;;
67274;SDS011;55463;52.324;5.122;2023-04-21T01:22:12;25.27;;;15.77;;
67274;SDS011;55463;52.324;5.122;2023-04-21T01:24:46;22.83;;;15.38;;
67274;SDS011;55463;52.324;5.122;2023-04-21T01:27:15;24.40;;;15.95;;
67274;SDS011;55463;52.324;5.122;2023-04-21T01:29:44;25.88;;;15.77;;
67274;SDS011;55463;52.324;5.122;2023-04-21T01:32:18;22.67;;;15.82;;
67274;SDS011;55463;52.324;5.122;2023-04-21T01:34:45;23.48;;;15.60;;
67274;SDS011;55463;52.324;5.122;2023-04-21T01:37:11;26.48;;;16.95;;
67274;SDS011;55463;52.324;5.122;2023-04-21T01:39:39;26.50;;;16.80;;
67274;SDS011;55463;52.324;5.122;2023-04-21T01:42:06;23.15;;;15.20;;
67274;SDS011;55463;52.324;5.122;2023-04-21T01:44:32;21.98;;;15.57;;
67274;SDS011;55463;52.324;5.122;2023-04-21T01:46:58;22.98;;;15.50;;
67274;SDS011;55463;52.324;5.122;2023-04-21T01:49:23;25.33;;;16.98;;
67274;SDS011;55463;52.324;5.122;2023-04-21T01:51:48;27.20;;;17.25;;
67274;SDS011;55463;52.324;5.122;2023-04-21T01:54:14;23.38;;;15.27;;
67274;SDS011;55463;52.324;5.122;2023-04-21T01:56:39;29.25;;;17.23;;
67274;SDS011;55463;52.324;5.122;2023-04-21T01:59:05;24.42;;;16.33;;
67274;SDS011;55463;52.324;5.122;2023-04-21T02:01:30;28.38;;;17.20;;
67274;SDS011;55463;52.324;5.122;2023-04-21T02:03:56;22.92;;;15.93;;
67274;SDS011;55463;52.324;5.122;2023-04-21T02:06:21;26.20;;;17.42;;
67274;SDS011;55463;52.324;5.122;2023-04-21T02:08:46;28.75;;;18.42;;
67274;SDS011;55463;52.324;5.122;2023-04-21T02:11:12;30.38;;;18.05;;
67274;SDS011;55463;52.324;5.122;2023-04-21T02:13:37;28.50;;;17.95;;
67274;SDS011;55463;52.324;5.122;2023-04-21T02:16:02;34.33;;;19.60;;
67274;SDS011;55463;52.324;5.122;2023-04-21T02:18:28;29.20;;;17.80;;
67274;SDS011;55463;52.324;5.122;2023-04-21T02:20:54;28.10;;;17.55;;
67274;SDS011;55463;52.324;5.122;2023-04-21T02:23:20;29.20;;;18.75;;
67274;SDS011;55463;52.324;5.122;2023-04-21T02:25:45;29.42;;;17.98;;
67274;SDS011;55463;52.324;5.122;2023-04-21T02:28:11;26.90;;;18.63;;
67274;SDS011;55463;52.324;5.122;2023-04-21T02:30:36;22.42;;;15.82;;
67274;SDS011;55463;52.324;5.122;2023-04-21T02:33:02;27.38;;;17.98;;
67274;SDS011;55463;52.324;5.122;2023-04-21T02:35:27;24.48;;;16.38;;
67274;SDS011;55463;52.324;5.122;2023-04-21T02:37:52;26.85;;;17.08;;
67274;SDS011;55463;52.324;5.122;2023-04-21T02:40:18;25.40;;;15.52;;
67274;SDS011;55463;52.324;5.122;2023-04-21T02:42:43;21.98;;;15.15;;
67274;SDS011;55463;52.324;5.122;2023-04-21T02:45:09;23.77;;;16.05;;
67274;SDS011;55463;52.324;5.122;2023-04-21T02:47:35;25.58;;;15.48;;
67274;SDS011;55463;52.324;5.122;2023-04-21T02:50:00;24.00;;;14.80;;
67274;SDS011;55463;52.324;5.122;2023-04-21T02:52:26;23.02;;;15.25;;
67274;SDS011;55463;52.324;5.122;2023-04-21T02:54:51;21.17;;;13.85;;
67274;SDS011;55463;52.324;5.122;2023-04-21T02:57:17;19.85;;;13.02;;
67274;SDS011;55463;52.324;5.122;2023-04-21T02:59:42;24.67;;;15.60;;
67274;SDS011;55463;52.324;5.122;2023-04-21T03:02:08;22.38;;;16.00;;
67274;SDS011;55463;52.324;5.122;2023-04-21T03:04:33;24.83;;;15.13;;
67274;SDS011;55463;52.324;5.122;2023-04-21T03:06:58;23.23;;;14.73;;
67274;SDS011;55463;52.324;5.122;2023-04-21T03:09:24;25.80;;;16.20;;
67274;SDS011;55463;52.324;5.122;2023-04-21T03:11:49;23.83;;;15.32;;
67274;SDS011;55463;52.324;5.122;2023-04-21T03:14:14;26.50;;;16.83;;
67274;SDS011;55463;52.324;5.122;2023-04-21T03:16:40;24.83;;;16.27;;
67274;SDS011;55463;52.324;5.122;2023-04-21T03:19:05;26.05;;;15.82;;
67274;SDS011;55463;52.324;5.122;2023-04-21T03:21:30;25.83;;;14.73;;
67274;SDS011;55463;52.324;5.122;2023-04-21T03:23:56;23.70;;;14.93;;
67274;SDS011;55463;52.324;5.122;2023-04-21T03:26:21;22.70;;;14.82;;
67274;SDS011;55463;52.324;5.122;2023-04-21T03:28:47;24.50;;;14.73;;
67274;SDS011;55463;52.324;5.122;2023-04-21T03:31:12;26.75;;;15.68;;
67274;SDS011;55463;52.324;5.122;2023-04-21T03:33:37;23.08;;;14.10;;
67274;SDS011;55463;52.324;5.122;2023-04-21T03:36:03;24.52;;;14.50;;
67274;SDS011;55463;52.324;5.122;2023-04-21T03:38:28;24.27;;;13.95;;
67274;SDS011;55463;52.324;5.122;2023-04-21T03:40:54;19.25;;;13.13;;
67274;SDS011;55463;52.324;5.122;2023-04-21T03:43:19;17.35;;;12.40;;
67274;SDS011;55463;52.324;5.122;2023-04-21T03:45:45;19.45;;;13.43;;
67274;SDS011;55463;52.324;5.122;2023-04-21T03:48:10;19.15;;;13.07;;
67274;SDS011;55463;52.324;5.122;2023-04-21T03:50:36;22.95;;;14.23;;
67274;SDS011;55463;52.324;5.122;2023-04-21T03:53:02;22.35;;;14.27;;
67274;SDS011;55463;52.324;5.122;2023-04-21T03:55:27;20.73;;;14.00;;
67274;SDS011;55463;52.324;5.122;2023-04-21T03:57:53;20.30;;;12.80;;
67274;SDS011;55463;52.324;5.122;2023-04-21T04:00:18;19.20;;;13.90;;
67274;SDS011;55463;52.324;5.122;2023-04-21T04:02:45;22.00;;;14.50;;
67274;SDS011;55463;52.324;5.122;2023-04-21T04:05:10;18.65;;;13.25;;
67274;SDS011;55463;52.324;5.122;2023-04-21T04:07:35;22.80;;;14.90;;
67274;SDS011;55463;52.324;5.122;2023-04-21T04:10:01;19.42;;;13.73;;
67274;SDS011;55463;52.324;5.122;2023-04-21T04:12:26;18.17;;;12.32;;
67274;SDS011;55463;52.324;5.122;2023-04-21T04:14:52;19.85;;;13.13;;
67274;SDS011;55463;52.324;5.122;2023-04-21T04:17:17;21.65;;;14.45;;
67274;SDS011;55463;52.324;5.122;2023-04-21T04:19:42;20.25;;;13.52;;
67274;SDS011;55463;52.324;5.122;2023-04-21T04:22:08;21.77;;;14.57;;
67274;SDS011;55463;52.324;5.122;2023-04-21T04:24:33;19.63;;;13.77;;
67274;SDS011;55463;52.324;5.122;2023-04-21T04:26:59;20.25;;;13.38;;
67274;SDS011;55463;52.324;5.122;2023-04-21T04:29:30;22.98;;;14.60;;
67274;SDS011;55463;52.324;5.122;2023-04-21T04:31:56;23.13;;;15.85;;
67274;SDS011;55463;52.324;5.122;2023-04-21T04:34:22;21.45;;;14.73;;
67274;SDS011;55463;52.324;5.122;2023-04-21T04:36:48;26.30;;;17.00;;
67274;SDS011;55463;52.324;5.122;2023-04-21T04:39:14;21.52;;;15.00;;
67274;SDS011;55463;52.324;5.122;2023-04-21T04:41:41;22.17;;;14.88;;
67274;SDS011;55463;52.324;5.122;2023-04-21T04:44:06;21.52;;;15.02;;
67274;SDS011;55463;52.324;5.122;2023-04-21T04:46:31;25.88;;;16.48;;
67274;SDS011;55463;52.324;5.122;2023-04-21T04:48:58;29.80;;;18.48;;
67274;SDS011;55463;52.324;5.122;2023-04-21T04:51:26;26.95;;;18.40;;
67274;SDS011;55463;52.324;5.122;2023-04-21T04:53:52;28.20;;;18.05;;
67274;SDS011;55463;52.324;5.122;2023-04-21T04:56:17;29.27;;;18.95;;
67274;SDS011;55463;52.324;5.122;2023-04-21T04:58:42;27.60;;;18.17;;
67274;SDS011;55463;52.324;5.122;2023-04-21T05:01:13;22.80;;;16.42;;
67274;SDS011;55463;52.324;5.122;2023-04-21T05:03:40;26.17;;;18.13;;
67274;SDS011;55463;52.324;5.122;2023-04-21T05:06:06;31.23;;;19.73;;
67274;SDS011;55463;52.324;5.122;2023-04-21T05:08:32;25.25;;;17.95;;
67274;SDS011;55463;52.324;5.122;2023-04-21T05:10:57;28.40;;;18.77;;
67274;SDS011;55463;52.324;5.122;2023-04-21T05:13:23;27.30;;;18.90;;
67274;SDS011;55463;52.324;5.122;2023-04-21T05:15:48;24.17;;;17.60;;
67274;SDS011;55463;52.324;5.122;2023-04-21T05:18:13;26.45;;;17.83;;
67274;SDS011;55463;52.324;5.122;2023-04-21T05:20:42;27.23;;;19.00;;
67274;SDS011;55463;52.324;5.122;2023-04-21T05:23:07;28.63;;;19.90;;
67274;SDS011;55463;52.324;5.122;2023-04-21T05:25:33;28.92;;;19.65;;
67274;SDS011;55463;52.324;5.122;2023-04-21T05:27:58;30.05;;;18.95;;
67274;SDS011;55463;52.324;5.122;2023-04-21T05:30:23;25.10;;;17.92;;
67274;SDS011;55463;52.324;5.122;2023-04-21T05:32:49;28.02;;;19.95;;
67274;SDS011;55463;52.324;5.122;2023-04-21T05:35:14;27.10;;;17.98;;
67274;SDS011;55463;52.324;5.122;2023-04-21T05:37:40;24.50;;;17.83;;
67274;SDS011;55463;52.324;5.122;2023-04-21T05:40:05;27.70;;;18.65;;
67274;SDS011;55463;52.324;5.122;2023-04-21T05:42:31;29.65;;;19.48;;
67274;SDS011;55463;52.324;5.122;2023-04-21T05:44:56;27.10;;;18.40;;
67274;SDS011;55463;52.324;5.122;2023-04-21T05:47:22;23.58;;;17.08;;
67274;SDS011;55463;52.324;5.122;2023-04-21T05:49:50;23.92;;;17.63;;
67274;SDS011;55463;52.324;5.122;2023-04-21T05:52:17;27.65;;;17.65;;
67274;SDS011;55463;52.324;5.122;2023-04-21T05:54:42;25.60;;;17.95;;
67274;SDS011;55463;52.324;5.122;2023-04-21T05:57:08;27.15;;;18.20;;
67274;SDS011;55463;52.324;5.122;2023-04-21T05:59:33;27.65;;;18.58;;
67274;SDS011;55463;52.324;5.122;2023-04-21T06:01:58;26.05;;;18.00;;
67274;SDS011;55463;52.324;5.122;2023-04-21T06:04:24;28.42;;;20.08;;
67274;SDS011;55463;52.324;5.122;2023-04-21T06:06:49;30.33;;;19.08;;
67274;SDS011;55463;52.324;5.122;2023-04-21T06:09:15;28.90;;;19.15;;
67274;SDS011;55463;52.324;5.122;2023-04-21T06:11:40;32.03;;;20.85;;
67274;SDS011;55463;52.324;5.122;2023-04-21T06:14:05;31.52;;;20.75;;
67274;SDS011;55463;52.324;5.122;2023-04-21T06:16:31;26.48;;;19.25;;
67274;SDS011;55463;52.324;5.122;2023-04-21T06:18:58;29.70;;;21.25;;
67274;SDS011;55463;52.324;5.122;2023-04-21T06:21:24;37.10;;;23.13;;
67274;SDS011;55463;52.324;5.122;2023-04-21T06:23:49;39.70;;;24.33;;
67274;SDS011;55463;52.324;5.122;2023-04-21T06:26:15;30.55;;;21.20;;
67274;SDS011;55463;52.324;5.122;2023-04-21T06:28:40;36.97;;;22.92;;
67274;SDS011;55463;52.324;5.122;2023-04-21T06:31:06;32.78;;;22.40;;
67274;SDS011;55463;52.324;5.122;2023-04-21T06:33:33;28.50;;;21.30;;
67274;SDS011;55463;52.324;5.122;2023-04-21T06:35:59;31.50;;;22.67;;
67274;SDS011;55463;52.324;5.122;2023-04-21T06:38:24;33.85;;;22.70;;
67274;SDS011;55463;52.324;5.122;2023-04-21T06:40:50;37.13;;;20.63;;
67274;SDS011;55463;52.324;5.122;2023-04-21T06:43:15;35.03;;;22.08;;
67274;SDS011;55463;52.324;5.122;2023-04-21T06:45:41;34.40;;;21.05;;
67274;SDS011;55463;52.324;5.122;2023-04-21T06:48:06;29.45;;;21.33;;
67274;SDS011;55463;52.324;5.122;2023-04-21T06:50:32;31.42;;;21.05;;
67274;SDS011;55463;52.324;5.122;2023-04-21T06:52:57;37.00;;;23.02;;
67274;SDS011;55463;52.324;5.122;2023-04-21T06:55:22;33.72;;;21.67;;
67274;SDS011;55463;52.324;5.122;2023-04-21T06:57:48;33.20;;;20.20;;
67274;SDS011;55463;52.324;5.122;2023-04-21T07:00:13;33.63;;;22.50;;
67274;SDS011;55463;52.324;5.122;2023-04-21T07:02:39;29.65;;;20.70;;
67274;SDS011;55463;52.324;5.122;2023-04-21T07:05:05;32.28;;;20.40;;
67274;SDS011;55463;52.324;5.122;2023-04-21T07:07:31;33.58;;;21.35;;
67274;SDS011;55463;52.324;5.122;2023-04-21T07:09:57;33.90;;;21.77;;
67274;SDS011;55463;52.324;5.122;2023-04-21T07:12:22;36.42;;;23.55;;
67274;SDS011;55463;52.324;5.122;2023-04-21T07:14:47;35.60;;;21.60;;
67274;SDS011;55463;52.324;5.122;2023-04-21T07:17:13;33.80;;;20.95;;
67274;SDS011;55463;52.324;5.122;2023-04-21T07:19:38;36.85;;;22.35;;
67274;SDS011;55463;52.324;5.122;2023-04-21T07:22:04;32.15;;;21.92;;
67274;SDS011;55463;52.324;5.122;2023-04-21T07:24:29;31.48;;;20.20;;
67274;SDS011;55463;52.324;5.122;2023-04-21T07:26:55;31.98;;;22.92;;
67274;SDS011;55463;52.324;5.122;2023-04-21T07:29:21;32.30;;;21.83;;
67274;SDS011;55463;52.324;5.122;2023-04-21T07:31:46;31.40;;;20.73;;
67274;SDS011;55463;52.324;5.122;2023-04-21T07:34:12;35.22;;;23.58;;
67274;SDS011;55463;52.324;5.122;2023-04-21T07:36:38;42.42;;;25.35;;
67274;SDS011;55463;52.324;5.122;2023-04-21T07:39:03;32.65;;;22.33;;
67274;SDS011;55463;52.324;5.122;2023-04-21T07:41:29;38.42;;;20.77;;
67274;SDS011;55463;52.324;5.122;2023-04-21T07:43:54;36.63;;;22.73;;
67274;SDS011;55463;52.324;5.122;2023-04-21T07:46:20;29.38;;;20.20;;
67274;SDS011;55463;52.324;5.122;2023-04-21T07:48:46;29.77;;;19.95;;
67274;SDS011;55463;52.324;5.122;2023-04-21T07:51:12;27.67;;;20.30;;
67274;SDS011;55463;52.324;5.122;2023-04-21T07:53:39;25.08;;;19.35;;
67274;SDS011;55463;52.324;5.122;2023-04-21T07:56:05;25.65;;;18.55;;
67274;SDS011;55463;52.324;5.122;2023-04-21T07:58:31;24.85;;;18.67;;
67274;SDS011;55463;52.324;5.122;2023-04-21T08:00:56;25.58;;;17.25;;
67274;SDS011;55463;52.324;5.122;2023-04-21T08:03:22;23.48;;;17.50;;
67274;SDS011;55463;52.324;5.122;2023-04-21T08:05:47;32.75;;;19.38;;
67274;SDS011;55463;52.324;5.122;2023-04-21T08:08:12;26.52;;;17.58;;
67274;SDS011;55463;52.324;5.122;2023-04-21T08:10:44;25.75;;;18.38;;
67274;SDS011;55463;52.324;5.122;2023-04-21T08:13:09;27.15;;;18.42;;
67274;SDS011;55463;52.324;5.122;2023-04-21T08:15:35;28.00;;;19.17;;
67274;SDS011;55463;52.324;5.122;2023-04-21T08:18:00;26.83;;;19.00;;
67274;SDS011;55463;52.324;5.122;2023-04-21T08:20:47;23.48;;;17.52;;
67274;SDS011;55463;52.324;5.122;2023-04-21T08:23:13;26.58;;;19.10;;
67274;SDS011;55463;52.324;5.122;2023-04-21T08:25:39;31.63;;;18.50;;
67274;SDS011;55463;52.324;5.122;2023-04-21T08:28:04;31.17;;;19.55;;
67274;SDS011;55463;52.324;5.122;2023-04-21T08:30:39;31.05;;;19.25;;
67274;SDS011;55463;52.324;5.122;2023-04-21T08:33:04;26.10;;;19.85;;
67274;SDS011;55463;52.324;5.122;2023-04-21T08:35:31;27.02;;;19.02;;
67274;SDS011;55463;52.324;5.122;2023-04-21T08:37:58;31.50;;;19.42;;
67274;SDS011;55463;52.324;5.122;2023-04-21T08:40:26;28.70;;;20.13;;
67274;SDS011;55463;52.324;5.122;2023-04-21T08:43:13;29.52;;;20.15;;
67274;SDS011;55463;52.324;5.122;2023-04-21T08:45:39;25.48;;;18.58;;
67274;SDS011;55463;52.324;5.122;2023-04-21T08:48:05;29.33;;;20.13;;
67274;SDS011;55463;52.324;5.122;2023-04-21T08:50:31;29.77;;;19.67;;
67274;SDS011;55463;52.324;5.122;2023-04-21T08:53:10;27.15;;;19.80;;
67274;SDS011;55463;52.324;5.122;2023-04-21T08:55:37;27.40;;;19.65;;
67274;SDS011;55463;52.324;5.122;2023-04-21T08:58:05;26.13;;;19.17;;
67274;SDS011;55463;52.324;5.122;2023-04-21T09:00:33;26.10;;;19.05;;
67274;SDS011;55463;52.324;5.122;2023-04-21T09:02:59;25.42;;;18.65;;
67274;SDS011;55463;52.324;5.122;2023-04-21T09:05:34;27.75;;;18.25;;
67274;SDS011;55463;52.324;5.122;2023-04-21T09:08:14;27.35;;;19.48;;
67274;SDS011;55463;52.324;5.122;2023-04-21T09:13:29;27.20;;;19.17;;
67274;SDS011;55463;52.324;5.122;2023-04-21T09:15:55;29.38;;;18.52;;
67274;SDS011;55463;52.324;5.122;2023-04-21T09:18:22;37.10;;;19.23;;
67274;SDS011;55463;52.324;5.122;2023-04-21T09:20:50;27.75;;;18.77;;
67274;SDS011;55463;52.324;5.122;2023-04-21T09:26:09;25.77;;;17.65;;
67274;SDS011;55463;52.324;5.122;2023-04-21T09:28:42;24.80;;;18.05;;
67274;SDS011;55463;52.324;5.122;2023-04-21T09:33:56;23.92;;;18.52;;
67274;SDS011;55463;52.324;5.122;2023-04-21T09:36:26;25.10;;;17.90;;
67274;SDS011;55463;52.324;5.122;2023-04-21T09:38:56;23.10;;;17.67;;
67274;SDS011;55463;52.324;5.122;2023-04-21T09:41:38;28.13;;;18.80;;
67274;SDS011;55463;52.324;5.122;2023-04-21T09:44:04;29.77;;;19.02;;
67274;SDS011;55463;52.324;5.122;2023-04-21T09:46:33;30.42;;;20.10;;
67274;SDS011;55463;52.324;5.122;2023-04-21T09:49:00;23.15;;;18.83;;
67274;SDS011;55463;52.324;5.122;2023-04-21T09:51:26;25.85;;;19.55;;
67274;SDS011;55463;52.324;5.122;2023-04-21T09:53:59;30.27;;;18.20;;
67274;SDS011;55463;52.324;5.122;2023-04-21T09:56:36;25.52;;;18.67;;
67274;SDS011;55463;52.324;5.122;2023-04-21T09:59:05;25.20;;;18.73;;
67274;SDS011;55463;52.324;5.122;2023-04-21T10:01:32;28.70;;;18.50;;
67274;SDS011;55463;52.324;5.122;2023-04-21T10:04:08;23.63;;;17.90;;
67274;SDS011;55463;52.324;5.122;2023-04-21T10:06:34;23.45;;;17.40;;
67274;SDS011;55463;52.324;5.122;2023-04-21T10:09:00;29.92;;;18.48;;
67274;SDS011;55463;52.324;5.122;2023-04-21T10:11:29;29.38;;;18.73;;
67274;SDS011;55463;52.324;5.122;2023-04-21T10:13:56;24.60;;;17.73;;
67274;SDS011;55463;52.324;5.122;2023-04-21T10:16:31;23.73;;;18.83;;
67274;SDS011;55463;52.324;5.122;2023-04-21T10:19:02;23.85;;;17.85;;
67274;SDS011;55463;52.324;5.122;2023-04-21T10:21:48;26.65;;;18.45;;
67274;SDS011;55463;52.324;5.122;2023-04-21T10:24:27;20.77;;;16.73;;
67274;SDS011;55463;52.324;5.122;2023-04-21T10:26:53;25.80;;;18.05;;
67274;SDS011;55463;52.324;5.122;2023-04-21T10:29:30;24.85;;;17.48;;
67274;SDS011;55463;52.324;5.122;2023-04-21T10:31:57;23.88;;;16.80;;
67274;SDS011;55463;52.324;5.122;2023-04-21T10:34:36;27.42;;;17.73;;
67274;SDS011;55463;52.324;5.122;2023-04-21T10:39:44;27.38;;;18.35;;
67274;SDS011;55463;52.324;5.122;2023-04-21T10:42:28;22.95;;;17.63;;
67274;SDS011;55463;52.324;5.122;2023-04-21T10:49:52;25.20;;;16.90;;
67274;SDS011;55463;52.324;5.122;2023-04-21T10:52:19;25.23;;;17.15;;
67274;SDS011;55463;52.324;5.122;2023-04-21T10:57:25;24.52;;;16.65;;
67274;SDS011;55463;52.324;5.122;2023-04-21T10:59:56;22.60;;;16.58;;
67274;SDS011;55463;52.324;5.122;2023-04-21T11:02:22;24.13;;;17.17;;
67274;SDS011;55463;52.324;5.122;2023-04-21T11:04:56;23.23;;;16.65;;
67274;SDS011;55463;52.324;5.122;2023-04-21T11:07:24;25.40;;;17.10;;
67274;SDS011;55463;52.324;5.122;2023-04-21T11:10:03;25.52;;;18.13;;
67274;SDS011;55463;52.324;5.122;2023-04-21T11:12:31;23.48;;;17.48;;
67274;SDS011;55463;52.324;5.122;2023-04-21T11:15:08;23.23;;;16.88;;
67274;SDS011;55463;52.324;5.122;2023-04-21T11:17:35;26.88;;;17.20;;
67274;SDS011;55463;52.324;5.122;2023-04-21T11:20:03;22.80;;;17.40;;
67274;SDS011;55463;52.324;5.122;2023-04-21T11:22:30;23.38;;;17.77;;
67274;SDS011;55463;52.324;5.122;2023-04-21T11:24:56;29.42;;;17.40;;
67274;SDS011;55463;52.324;5.122;2023-04-21T11:27:28;23.92;;;17.48;;
67274;SDS011;55463;52.324;5.122;2023-04-21T11:29:54;25.67;;;17.67;;
67274;SDS011;55463;52.324;5.122;2023-04-21T11:32:21;26.27;;;17.15;;
67274;SDS011;55463;52.324;5.122;2023-04-21T11:34:46;23.67;;;17.67;;
67274;SDS011;55463;52.324;5.122;2023-04-21T11:37:20;23.88;;;17.00;;
67274;SDS011;55463;52.324;5.122;2023-04-21T11:40:04;25.38;;;17.50;;
67274;SDS011;55463;52.324;5.122;2023-04-21T11:42:31;23.67;;;17.20;;
67274;SDS011;55463;52.324;5.122;2023-04-21T11:44:57;23.80;;;17.20;;
67274;SDS011;55463;52.324;5.122;2023-04-21T11:47:23;23.92;;;17.23;;
67274;SDS011;55463;52.324;5.122;2023-04-21T11:50:02;25.45;;;18.42;;
67274;SDS011;55463;52.324;5.122;2023-04-21T11:52:28;27.00;;;17.45;;
67274;SDS011;55463;52.324;5.122;2023-04-21T11:57:23;28.83;;;16.58;;
67274;SDS011;55463;52.324;5.122;2023-04-21T11:59:50;23.33;;;17.13;;
67274;SDS011;55463;52.324;5.122;2023-04-21T12:02:27;23.80;;;16.25;;
67274;SDS011;55463;52.324;5.122;2023-04-21T12:07:28;24.55;;;17.48;;
67274;SDS011;55463;52.324;5.122;2023-04-21T12:09:54;23.55;;;17.83;;
67274;SDS011;55463;52.324;5.122;2023-04-21T12:12:32;26.10;;;17.50;;
67274;SDS011;55463;52.324;5.122;2023-04-21T12:15:02;26.48;;;16.73;;
67274;SDS011;55463;52.324;5.122;2023-04-21T12:17:33;23.70;;;17.08;;
67274;SDS011;55463;52.324;5.122;2023-04-21T12:20:03;29.85;;;17.80;;
67274;SDS011;55463;52.324;5.122;2023-04-21T12:22:41;25.38;;;17.20;;
67274;SDS011;55463;52.324;5.122;2023-04-21T12:25:06;24.52;;;16.85;;
67274;SDS011;55463;52.324;5.122;2023-04-21T12:27:33;24.98;;;16.42;;
67274;SDS011;55463;52.324;5.122;2023-04-21T12:29:58;24.05;;;16.48;;
67274;SDS011;55463;52.324;5.122;2023-04-21T12:32:24;24.63;;;15.85;;
67274;SDS011;55463;52.324;5.122;2023-04-21T12:35:08;24.63;;;15.75;;
67274;SDS011;55463;52.324;5.122;2023-04-21T12:37:34;21.27;;;16.15;;
67274;SDS011;55463;52.324;5.122;2023-04-21T12:40:00;20.08;;;15.70;;
67274;SDS011;55463;52.324;5.122;2023-04-21T12:42:25;23.52;;;16.50;;
67274;SDS011;55463;52.324;5.122;2023-04-21T12:44:52;22.23;;;16.17;;
67274;SDS011;55463;52.324;5.122;2023-04-21T12:47:29;22.45;;;16.17;;
67274;SDS011;55463;52.324;5.122;2023-04-21T12:49:55;21.90;;;15.35;;
67274;SDS011;55463;52.324;5.122;2023-04-21T12:52:24;19.80;;;15.70;;
67274;SDS011;55463;52.324;5.122;2023-04-21T12:54:50;26.05;;;16.55;;
67274;SDS011;55463;52.324;5.122;2023-04-21T12:57:16;19.63;;;15.35;;
67274;SDS011;55463;52.324;5.122;2023-04-21T12:59:51;208.85;;;31.27;;
67274;SDS011;55463;52.324;5.122;2023-04-21T13:02:16;23.15;;;15.00;;
67274;SDS011;55463;52.324;5.122;2023-04-21T13:04:42;21.60;;;15.73;;
67274;SDS011;55463;52.324;5.122;2023-04-21T13:07:10;20.30;;;15.27;;
67274;SDS011;55463;52.324;5.122;2023-04-21T13:09:35;22.20;;;14.85;;
67274;SDS011;55463;52.324;5.122;2023-04-21T13:12:16;20.83;;;15.30;;
67274;SDS011;55463;52.324;5.122;2023-04-21T13:14:44;22.15;;;14.82;;
67274;SDS011;55463;52.324;5.122;2023-04-21T13:17:09;21.67;;;15.32;;
67274;SDS011;55463;52.324;5.122;2023-04-21T13:19:35;20.90;;;15.48;;
67274;SDS011;55463;52.324;5.122;2023-04-21T13:22:00;20.25;;;15.80;;
67274;SDS011;55463;52.324;5.122;2023-04-21T13:24:38;21.85;;;15.85;;
67274;SDS011;55463;52.324;5.122;2023-04-21T13:27:03;23.13;;;15.57;;
67274;SDS011;55463;52.324;5.122;2023-04-21T13:29:29;21.58;;;16.20;;
67274;SDS011;55463;52.324;5.122;2023-04-21T13:31:59;22.73;;;16.67;;
67274;SDS011;55463;52.324;5.122;2023-04-21T13:34:26;22.73;;;16.17;;
67274;SDS011;55463;52.324;5.122;2023-04-21T13:37:01;19.75;;;15.57;;
67274;SDS011;55463;52.324;5.122;2023-04-21T13:39:26;23.52;;;17.92;;
67274;SDS011;55463;52.324;5.122;2023-04-21T13:41:52;21.98;;;16.13;;
67274;SDS011;55463;52.324;5.122;2023-04-21T13:44:18;28.77;;;17.00;;
67274;SDS011;55463;52.324;5.122;2023-04-21T13:46:45;23.90;;;18.35;;
67274;SDS011;55463;52.324;5.122;2023-04-21T13:52:08;20.40;;;16.17;;
67274;SDS011;55463;52.324;5.122;2023-04-21T13:54:33;28.02;;;17.17;;
67274;SDS011;55463;52.324;5.122;2023-04-21T13:56:59;24.10;;;15.60;;
67274;SDS011;55463;52.324;5.122;2023-04-21T13:59:34;23.17;;;15.93;;
67274;SDS011;55463;52.324;5.122;2023-04-21T14:01:59;22.33;;;16.13;;
67274;SDS011;55463;52.324;5.122;2023-04-21T14:04:25;20.73;;;16.67;;
67274;SDS011;55463;52.324;5.122;2023-04-21T14:06:50;21.60;;;15.50;;
67274;SDS011;55463;52.324;5.122;2023-04-21T14:09:16;23.10;;;16.30;;
67274;SDS011;55463;52.324;5.122;2023-04-21T14:11:41;18.80;;;15.93;;
67274;SDS011;55463;52.324;5.122;2023-04-21T14:14:13;23.17;;;16.25;;
67274;SDS011;55463;52.324;5.122;2023-04-21T14:16:38;21.90;;;16.10;;
67274;SDS011;55463;52.324;5.122;2023-04-21T14:19:04;26.70;;;15.95;;
67274;SDS011;55463;52.324;5.122;2023-04-21T14:21:30;19.58;;;15.30;;
67274;SDS011;55463;52.324;5.122;2023-04-21T14:23:56;20.45;;;15.35;;
67274;SDS011;55463;52.324;5.122;2023-04-21T14:26:37;24.65;;;15.38;;
67274;SDS011;55463;52.324;5.122;2023-04-21T14:29:02;22.45;;;15.38;;
67274;SDS011;55463;52.324;5.122;2023-04-21T14:31:28;24.55;;;15.18;;
67274;SDS011;55463;52.324;5.122;2023-04-21T14:33:53;17.70;;;14.68;;
67274;SDS011;55463;52.324;5.122;2023-04-21T14:36:19;19.42;;;14.70;;
67274;SDS011;55463;52.324;5.122;2023-04-21T14:39:00;18.63;;;14.70;;
67274;SDS011;55463;52.324;5.122;2023-04-21T14:43:50;19.73;;;15.07;;
67274;SDS011;55463;52.324;5.122;2023-04-21T14:46:21;19.42;;;15.05;;
67274;SDS011;55463;52.324;5.122;2023-04-21T14:48:47;20.77;;;15.10;;
67274;SDS011;55463;52.324;5.122;2023-04-21T14:51:21;18.08;;;14.57;;